Time;durP1;ratioP1;P1;durP2;ratioP2;P2;SDS_P1;SDS_P2;PMS_P1;PMS_P2;Temp;Humidity;BMP_temperature;BMP_pressure;BME280_temperature;BME280_humidity;BME280_pressure;Samples;Min_cycle;Max_cycle;Signal;HPM_P1;HPM_P2
2021/05/25 00:00:23;;;;;;;2.27;1.17;;;10.50;99.90;;;;;;5026802;28;20188;-74
2021/05/25 00:02:49;;;;;;;0.70;0.63;;;10.50;99.90;;;;;;5029591;28;20181;-75
2021/05/25 00:05:20;;;;;;;0.80;0.73;;;10.60;99.90;;;;;;5026047;28;20458;-74
2021/05/25 00:07:46;;;;;;;0.80;0.80;;;10.60;99.90;;;;;;5036019;28;20432;-75
2021/05/25 00:10:13;;;;;;;0.77;0.77;;;10.50;99.90;;;;;;5022534;28;20801;-75
2021/05/25 00:12:39;;;;;;;1.43;0.93;;;10.50;99.90;;;;;;5021975;28;20630;-75
2021/05/25 00:15:08;;;;;;;1.20;1.10;;;10.50;99.90;;;;;;5005469;28;20542;-75
2021/05/25 00:17:34;;;;;;;0.73;0.73;;;10.40;99.90;;;;;;4993038;28;20439;-76
2021/05/25 00:19:59;;;;;;;0.90;0.80;;;10.50;99.90;;;;;;5028767;28;20448;-75
2021/05/25 00:22:25;;;;;;;1.20;1.10;;;10.50;99.90;;;;;;5030359;28;20192;-75
2021/05/25 00:24:51;;;;;;;0.90;0.90;;;10.50;99.90;;;;;;5026931;28;20225;-75
2021/05/25 00:27:17;;;;;;;1.20;1.10;;;10.40;99.90;;;;;;5025272;28;20195;-73
2021/05/25 00:29:42;;;;;;;1.33;1.23;;;10.40;99.90;;;;;;5019528;28;20217;-74
2021/05/25 00:32:08;;;;;;;1.13;0.90;;;10.40;99.90;;;;;;5029503;28;20208;-74
2021/05/25 00:34:34;;;;;;;1.33;1.10;;;10.30;99.90;;;;;;5029729;28;20316;-74
2021/05/25 00:37:00;;;;;;;1.30;1.20;;;10.30;99.90;;;;;;5026413;28;20185;-73
2021/05/25 00:39:26;;;;;;;4.17;1.33;;;10.20;99.90;;;;;;5050852;28;20192;-73
2021/05/25 00:41:51;;;;;;;1.63;1.53;;;10.20;99.90;;;;;;5009205;28;20447;-73
2021/05/25 00:44:17;;;;;;;0.97;0.93;;;10.20;99.90;;;;;;5027451;28;20213;-72
2021/05/25 00:46:43;;;;;;;1.10;1.00;;;10.30;99.90;;;;;;5011573;28;20189;-74
2021/05/25 00:49:09;;;;;;;1.13;0.90;;;10.30;99.90;;;;;;5028182;28;20680;-73
2021/05/25 00:51:35;;;;;;;1.30;1.20;;;10.20;99.90;;;;;;5028287;28;20657;-74
2021/05/25 00:54:01;;;;;;;2.13;1.10;;;10.20;99.90;;;;;;5026489;28;20451;-74
2021/05/25 00:56:27;;;;;;;0.77;0.77;;;10.30;99.90;;;;;;5027587;28;20655;-74
2021/05/25 00:58:53;;;;;;;1.00;0.97;;;10.20;99.90;;;;;;5027425;28;20440;-73
2021/05/25 01:01:19;;;;;;;2.00;1.10;;;10.30;99.90;;;;;;5030419;28;20656;-73
2021/05/25 01:03:45;;;;;;;0.83;0.83;;;10.30;99.90;;;;;;5010451;28;20232;-73
2021/05/25 01:06:10;;;;;;;1.13;1.03;;;10.30;99.90;;;;;;5049374;28;20447;-73
2021/05/25 01:08:38;;;;;;;4.00;1.13;;;10.40;99.90;;;;;;5046725;28;20219;-74
2021/05/25 01:11:07;;;;;;;1.10;0.93;;;10.40;99.90;;;;;;5040770;28;20598;-73
2021/05/25 01:13:46;;;;;;;1.10;1.10;;;10.40;99.90;;;;;;5045735;28;20464;-74
2021/05/25 01:16:13;;;;;;;3.13;0.90;;;10.30;99.90;;;;;;5009009;28;20467;-73
2021/05/25 01:18:39;;;;;;;0.80;0.80;;;10.30;99.90;;;;;;5032974;28;20435;-74
2021/05/25 01:21:10;;;;;;;0.73;0.70;;;10.40;99.90;;;;;;5032841;28;20439;-74
2021/05/25 01:23:37;;;;;;;1.03;1.00;;;10.40;99.90;;;;;;5032540;28;21166;-74
2021/05/25 01:26:04;;;;;;;0.80;0.80;;;10.40;99.90;;;;;;5016421;28;20471;-73
2021/05/25 01:28:30;;;;;;;0.67;0.63;;;10.40;99.90;;;;;;5016359;28;20459;-74
2021/05/25 01:30:56;;;;;;;2.70;1.23;;;10.50;99.90;;;;;;5016194;28;20438;-73
2021/05/25 01:33:25;;;;;;;0.70;0.70;;;10.50;99.90;;;;;;4995798;28;20460;-73
2021/05/25 01:35:52;;;;;;;0.80;0.80;;;10.50;99.90;;;;;;5015843;28;20514;-74
2021/05/25 01:38:18;;;;;;;1.13;0.77;;;10.40;99.90;;;;;;5028056;28;20450;-73
2021/05/25 01:40:44;;;;;;;0.90;0.73;;;10.40;99.90;;;;;;5029473;28;20443;-73
2021/05/25 01:43:10;;;;;;;1.17;0.80;;;10.50;99.90;;;;;;5022136;28;20440;-73
2021/05/25 01:45:36;;;;;;;1.00;0.83;;;10.50;99.90;;;;;;5025016;28;20498;-74
2021/05/25 01:48:05;;;;;;;1.80;0.77;;;10.50;99.90;;;;;;5029748;28;20467;-73
2021/05/25 01:50:32;;;;;;;1.53;0.77;;;10.40;99.90;;;;;;5001996;28;20281;-72
2021/05/25 01:53:11;;;;;;;0.93;0.77;;;10.50;99.90;;;;;;5036707;28;20485;-73
2021/05/25 01:55:43;;;;;;;0.80;0.80;;;10.50;99.90;;;;;;5044953;28;20403;-73
2021/05/25 01:58:20;;;;;;;1.00;0.80;;;10.50;99.90;;;;;;5031136;28;20447;-73
2021/05/25 02:00:48;;;;;;;0.93;0.90;;;10.40;99.90;;;;;;5043750;28;20444;-73
2021/05/25 02:03:15;;;;;;;1.20;1.10;;;10.40;99.90;;;;;;5045806;28;20519;-73
2021/05/25 02:05:41;;;;;;;1.27;1.20;;;10.40;99.90;;;;;;5022500;28;20500;-73
2021/05/25 02:08:08;;;;;;;0.90;0.90;;;10.40;99.90;;;;;;5024792;28;20455;-73
2021/05/25 02:10:42;;;;;;;1.20;1.00;;;10.40;99.90;;;;;;5031710;28;20462;-73
2021/05/25 02:13:10;;;;;;;0.73;0.73;;;10.40;99.90;;;;;;5012816;28;20411;-73
2021/05/25 02:15:37;;;;;;;1.20;1.10;;;10.50;99.90;;;;;;5031802;28;20458;-73
2021/05/25 02:18:17;;;;;;;1.00;0.70;;;10.40;99.90;;;;;;5048036;28;20462;-74
2021/05/25 02:20:46;;;;;;;0.90;0.87;;;10.40;99.90;;;;;;5047935;28;20420;-73
2021/05/25 02:23:12;;;;;;;0.83;0.77;;;10.50;99.90;;;;;;5047583;28;20435;-74
2021/05/25 02:25:38;;;;;;;4.17;1.00;;;10.40;99.90;;;;;;5048076;28;20443;-74
2021/05/25 02:28:05;;;;;;;1.00;0.90;;;10.40;99.90;;;;;;5047106;28;20467;-74
2021/05/25 02:30:32;;;;;;;0.80;0.80;;;10.30;99.90;;;;;;5031144;28;20431;-73
2021/05/25 02:32:59;;;;;;;0.97;0.97;;;10.40;99.90;;;;;;5048011;28;20863;-73
2021/05/25 02:35:25;;;;;;;1.47;0.90;;;10.40;99.90;;;;;;5031324;28;20451;-75
2021/05/25 02:37:51;;;;;;;1.03;1.03;;;10.30;99.90;;;;;;5031326;28;20427;-76
2021/05/25 02:40:17;;;;;;;0.83;0.83;;;10.30;99.90;;;;;;5045931;28;20189;-76
2021/05/25 02:42:43;;;;;;;1.47;1.17;;;10.30;99.90;;;;;;5030545;28;20195;-75
2021/05/25 02:45:09;;;;;;;1.20;1.10;;;10.30;99.90;;;;;;5028414;28;20211;-75
2021/05/25 02:47:35;;;;;;;2.13;0.70;;;10.20;99.90;;;;;;5024458;28;20200;-76
2021/05/25 02:50:07;;;;;;;0.90;0.90;;;10.20;99.90;;;;;;5030290;28;20517;-76
2021/05/25 02:52:41;;;;;;;1.73;1.50;;;10.30;99.90;;;;;;5033952;28;20254;-76
2021/05/25 02:55:10;;;;;;;1.13;1.00;;;10.30;99.90;;;;;;5027771;28;20539;-75
2021/05/25 02:57:36;;;;;;;2.20;1.00;;;10.20;99.90;;;;;;5044296;28;20939;-75
2021/05/25 03:00:12;;;;;;;1.40;1.30;;;10.20;99.90;;;;;;5047312;28;20459;-75
2021/05/25 03:02:38;;;;;;;1.23;1.13;;;10.20;99.90;;;;;;5014401;28;20433;-75
2021/05/25 03:05:06;;;;;;;1.40;1.30;;;10.20;99.90;;;;;;5030651;28;20447;-75
2021/05/25 03:07:31;;;;;;;1.57;1.10;;;10.20;99.90;;;;;;5030934;28;20185;-75
2021/05/25 03:09:57;;;;;;;1.30;1.20;;;10.10;99.90;;;;;;5027162;28;20973;-75
2021/05/25 03:12:23;;;;;;;0.90;0.80;;;10.10;99.90;;;;;;5041292;28;20239;-75
2021/05/25 03:14:49;;;;;;;0.70;0.70;;;10.10;99.90;;;;;;5027079;28;20263;-75
2021/05/25 03:17:20;;;;;;;0.60;0.60;;;10.20;99.90;;;;;;5030308;28;20181;-75
2021/05/25 03:19:46;;;;;;;0.57;0.57;;;10.20;99.90;;;;;;5026923;28;20520;-75
2021/05/25 03:22:12;;;;;;;2.17;1.10;;;10.20;99.90;;;;;;5027098;28;20943;-75
2021/05/25 03:24:38;;;;;;;2.00;0.60;;;10.20;99.90;;;;;;5027213;28;20259;-75
2021/05/25 03:27:03;;;;;;;1.23;0.90;;;10.20;99.90;;;;;;5053899;28;20193;-76
2021/05/25 03:29:44;;;;;;;0.93;0.63;;;10.20;99.90;;;;;;5034118;28;20269;-75
2021/05/25 03:32:10;;;;;;;0.57;0.57;;;10.20;99.90;;;;;;5013552;28;20654;-75
2021/05/25 03:34:36;;;;;;;1.33;0.70;;;10.20;99.90;;;;;;5030145;28;20452;-73
2021/05/25 03:37:01;;;;;;;1.00;0.83;;;10.20;99.90;;;;;;5029819;28;20213;-75
2021/05/25 03:39:27;;;;;;;1.00;0.77;;;10.20;99.90;;;;;;5030495;28;20762;-75
2021/05/25 03:41:54;;;;;;;0.70;0.67;;;10.30;99.90;;;;;;5063521;28;20264;-75
2021/05/25 03:44:20;;;;;;;0.93;0.90;;;10.30;99.90;;;;;;5013841;28;20238;-75
2021/05/25 03:46:46;;;;;;;0.90;0.90;;;10.30;99.90;;;;;;5050900;28;20523;-75
2021/05/25 03:49:12;;;;;;;1.03;0.73;;;10.30;99.90;;;;;;5043512;28;20468;-75
2021/05/25 03:51:38;;;;;;;1.00;0.60;;;10.20;99.90;;;;;;5026386;28;20581;-75
2021/05/25 03:54:43;;;;;;;0.67;0.67;;;10.20;99.90;;;;;;5031175;28;20473;-75
2021/05/25 03:57:08;;;;;;;1.60;0.70;;;10.20;99.90;;;;;;5055360;28;20669;-75
2021/05/25 03:59:34;;;;;;;1.00;0.63;;;10.20;99.90;;;;;;5057934;28;20529;-74
2021/05/25 04:01:59;;;;;;;1.77;0.60;;;10.10;99.90;;;;;;5041143;28;20444;-75
2021/05/25 04:04:25;;;;;;;1.17;0.80;;;10.10;99.90;;;;;;5006865;28;21022;-75
2021/05/25 04:06:51;;;;;;;1.13;0.67;;;10.10;99.90;;;;;;5010939;28;20193;-75
2021/05/25 04:09:16;;;;;;;0.97;0.90;;;10.10;99.90;;;;;;5003297;28;21579;-75
2021/05/25 04:11:42;;;;;;;0.80;0.53;;;10.20;99.90;;;;;;5008989;28;20200;-75
2021/05/25 04:14:08;;;;;;;0.90;0.50;;;10.20;99.90;;;;;;5044796;28;20232;-74
2021/05/25 04:16:34;;;;;;;1.17;0.60;;;10.20;99.90;;;;;;5024208;28;20186;-75
2021/05/25 04:19:00;;;;;;;1.07;0.70;;;10.10;99.90;;;;;;5007585;28;20189;-75
2021/05/25 04:21:25;;;;;;;2.13;0.90;;;10.10;99.90;;;;;;5031029;28;20454;-75
2021/05/25 04:23:51;;;;;;;1.60;0.90;;;10.10;99.90;;;;;;5032187;28;20204;-75
2021/05/25 04:26:17;;;;;;;0.97;0.90;;;10.10;99.90;;;;;;5048848;28;20193;-75
2021/05/25 04:28:43;;;;;;;0.53;0.53;;;10.10;99.90;;;;;;5010193;28;20227;-74
2021/05/25 04:31:08;;;;;;;0.60;0.60;;;10.00;99.90;;;;;;5027833;28;20185;-74
2021/05/25 04:33:34;;;;;;;0.60;0.60;;;10.00;99.90;;;;;;5013177;28;20201;-74
2021/05/25 04:36:00;;;;;;;2.10;0.83;;;10.00;99.90;;;;;;5028079;28;20552;-74
2021/05/25 04:38:26;;;;;;;1.77;1.10;;;10.00;99.90;;;;;;5050145;28;20216;-74
2021/05/25 04:40:51;;;;;;;1.97;0.83;;;10.10;99.90;;;;;;5037448;28;20540;-73
2021/05/25 04:43:17;;;;;;;0.70;0.60;;;10.00;99.90;;;;;;5033769;28;20445;-74
2021/05/25 04:45:44;;;;;;;1.63;0.67;;;10.10;99.90;;;;;;5040739;28;20189;-74
2021/05/25 04:48:10;;;;;;;0.60;0.60;;;10.10;99.90;;;;;;5032962;28;20299;-74
2021/05/25 04:50:38;;;;;;;1.10;0.70;;;10.00;99.90;;;;;;5049353;28;20442;-74
2021/05/25 04:53:04;;;;;;;0.67;0.50;;;10.00;99.90;;;;;;5032795;28;20427;-74
2021/05/25 04:55:30;;;;;;;1.17;0.93;;;10.00;99.90;;;;;;5033299;28;20420;-74
2021/05/25 04:57:56;;;;;;;1.10;0.60;;;10.00;99.90;;;;;;5033321;28;20416;-74
2021/05/25 05:00:25;;;;;;;0.67;0.57;;;10.00;99.90;;;;;;5049261;28;20789;-74
2021/05/25 05:02:51;;;;;;;1.03;0.70;;;10.00;99.90;;;;;;5016342;28;20807;-74
2021/05/25 05:05:18;;;;;;;1.63;0.90;;;10.00;99.90;;;;;;5033168;28;20450;-74
2021/05/25 05:07:44;;;;;;;1.00;0.90;;;10.00;99.90;;;;;;5034311;28;20939;-74
2021/05/25 05:10:10;;;;;;;0.87;0.80;;;10.00;99.90;;;;;;5027963;28;20431;-74
2021/05/25 05:12:36;;;;;;;0.60;0.60;;;9.90;99.90;;;;;;5032615;28;20184;-74
2021/05/25 05:15:04;;;;;;;0.70;0.70;;;9.80;99.90;;;;;;5049304;28;20466;-74
2021/05/25 05:17:30;;;;;;;0.87;0.60;;;9.80;99.90;;;;;;5032963;28;20433;-74
2021/05/25 05:19:56;;;;;;;0.70;0.60;;;9.80;99.90;;;;;;5030974;28;20490;-74
2021/05/25 05:22:22;;;;;;;0.50;0.50;;;9.80;99.90;;;;;;5032039;28;20442;-74
2021/05/25 05:24:52;;;;;;;0.90;0.90;;;9.90;99.90;;;;;;5034121;28;20541;-74
2021/05/25 05:27:18;;;;;;;0.50;0.40;;;9.90;99.90;;;;;;5049001;28;20927;-74
2021/05/25 05:29:44;;;;;;;0.73;0.57;;;9.80;99.90;;;;;;5015334;28;20474;-73
2021/05/25 05:32:10;;;;;;;0.50;0.50;;;9.70;99.90;;;;;;5053452;28;20413;-74
2021/05/25 05:34:38;;;;;;;0.60;0.53;;;9.70;99.90;;;;;;5048422;28;20653;-74
2021/05/25 05:37:05;;;;;;;0.50;0.50;;;9.70;99.90;;;;;;5032444;28;20165;-74
2021/05/25 05:39:30;;;;;;;1.23;1.13;;;9.70;99.90;;;;;;5015913;28;20512;-74
2021/05/25 05:41:56;;;;;;;1.40;1.30;;;9.70;99.90;;;;;;5032734;28;20875;-74
2021/05/25 05:44:22;;;;;;;1.03;0.70;;;9.70;99.90;;;;;;5045243;28;20255;-74
2021/05/25 05:46:48;;;;;;;1.33;0.70;;;9.70;99.90;;;;;;5032167;28;20961;-74
2021/05/25 05:49:14;;;;;;;0.73;0.73;;;9.80;99.90;;;;;;5032490;28;20211;-73
2021/05/25 05:51:40;;;;;;;0.53;0.53;;;9.70;99.90;;;;;;5032638;28;20184;-73
2021/05/25 05:54:07;;;;;;;0.83;0.70;;;9.70;99.90;;;;;;5015594;28;20223;-73
2021/05/25 05:56:33;;;;;;;0.57;0.57;;;9.70;99.90;;;;;;5032418;28;20797;-74
2021/05/25 05:58:59;;;;;;;0.53;0.53;;;9.60;99.90;;;;;;5031357;28;20447;-73
2021/05/25 06:01:25;;;;;;;1.60;0.60;;;9.60;99.90;;;;;;5028637;28;20437;-73
2021/05/25 06:03:51;;;;;;;0.93;0.93;;;9.60;99.90;;;;;;5012148;28;20308;-73
2021/05/25 06:06:16;;;;;;;0.60;0.50;;;9.60;99.90;;;;;;5012421;28;20212;-73
2021/05/25 06:08:42;;;;;;;0.40;0.40;;;9.60;99.90;;;;;;5014710;28;20335;-73
2021/05/25 06:11:08;;;;;;;2.10;0.80;;;9.60;99.90;;;;;;5028809;28;20236;-73
2021/05/25 06:13:34;;;;;;;0.80;0.50;;;9.60;99.90;;;;;;5028453;28;20272;-74
2021/05/25 06:16:03;;;;;;;1.63;0.53;;;9.50;99.90;;;;;;5028645;28;20962;-73
2021/05/25 06:18:30;;;;;;;0.40;0.40;;;9.50;99.90;;;;;;5028323;28;20811;-74
2021/05/25 06:20:56;;;;;;;0.57;0.43;;;9.50;99.90;;;;;;5028490;28;20448;-74
2021/05/25 06:23:21;;;;;;;1.37;0.70;;;9.50;99.90;;;;;;5011779;28;20436;-73
2021/05/25 06:25:47;;;;;;;1.13;0.90;;;9.50;99.90;;;;;;5015136;28;20450;-73
2021/05/25 06:28:14;;;;;;;0.60;0.60;;;9.50;99.90;;;;;;5031688;28;20205;-74
2021/05/25 06:30:40;;;;;;;2.60;0.80;;;9.60;99.90;;;;;;5044011;28;20475;-74
2021/05/25 06:33:06;;;;;;;0.60;0.60;;;9.50;99.90;;;;;;5054514;28;20423;-74
2021/05/25 06:35:34;;;;;;;0.97;0.70;;;9.50;99.90;;;;;;5030886;28;20427;-74
2021/05/25 06:38:00;;;;;;;0.70;0.70;;;9.50;99.90;;;;;;5015050;28;20919;-74
2021/05/25 06:40:26;;;;;;;0.67;0.67;;;9.50;99.90;;;;;;5047929;28;20419;-74
2021/05/25 06:42:52;;;;;;;0.70;0.70;;;9.50;99.90;;;;;;5047872;28;20808;-73
2021/05/25 06:45:18;;;;;;;0.50;0.50;;;9.60;99.90;;;;;;5030887;28;20586;-74
2021/05/25 06:47:44;;;;;;;1.17;0.80;;;9.60;99.90;;;;;;5031079;28;20201;-74
2021/05/25 06:50:10;;;;;;;0.60;0.50;;;9.60;99.90;;;;;;5030989;28;20489;-74
2021/05/25 06:52:36;;;;;;;0.87;0.50;;;9.60;99.90;;;;;;5031149;28;20419;-74
2021/05/25 06:55:04;;;;;;;0.53;0.40;;;9.60;99.90;;;;;;5030250;28;20459;-74
2021/05/25 06:57:30;;;;;;;0.60;0.47;;;9.60;99.90;;;;;;5012758;28;20429;-74
2021/05/25 06:59:56;;;;;;;0.57;0.50;;;9.70;99.90;;;;;;4997511;28;20440;-74
2021/05/25 07:02:23;;;;;;;0.67;0.50;;;9.60;99.90;;;;;;5030253;28;20435;-74
2021/05/25 07:04:50;;;;;;;0.40;0.40;;;9.60;99.90;;;;;;5046416;28;20990;-74
2021/05/25 07:07:16;;;;;;;0.73;0.67;;;9.70;99.90;;;;;;5027005;28;20440;-74
2021/05/25 07:09:42;;;;;;;0.70;0.40;;;9.70;99.90;;;;;;5010991;28;20482;-74
2021/05/25 07:12:08;;;;;;;1.03;0.57;;;9.70;99.90;;;;;;5010853;28;20177;-74
2021/05/25 07:14:34;;;;;;;0.80;0.50;;;9.70;99.90;;;;;;5011376;28;20224;-74
2021/05/25 07:17:00;;;;;;;0.40;0.40;;;9.70;99.90;;;;;;5010964;28;20448;-74
2021/05/25 07:19:26;;;;;;;1.10;0.40;;;9.70;99.90;;;;;;5027504;28;20194;-74
2021/05/25 07:21:51;;;;;;;0.40;0.30;;;9.70;99.90;;;;;;5011070;28;20247;-74
2021/05/25 07:24:17;;;;;;;0.83;0.63;;;9.80;99.90;;;;;;5010448;28;20739;-74
2021/05/25 07:26:43;;;;;;;0.57;0.57;;;9.80;99.90;;;;;;5030198;28;20267;-74
2021/05/25 07:29:09;;;;;;;0.80;0.70;;;9.80;99.90;;;;;;5029342;28;20635;-74
2021/05/25 07:31:34;;;;;;;0.40;0.30;;;9.80;99.90;;;;;;5013941;28;20177;-74
2021/05/25 07:34:00;;;;;;;0.63;0.50;;;9.90;99.90;;;;;;5013102;28;20739;-74
2021/05/25 07:36:26;;;;;;;0.50;0.50;;;9.90;99.90;;;;;;5029976;28;20639;-74
2021/05/25 07:38:52;;;;;;;0.50;0.47;;;10.00;99.90;;;;;;5045313;28;20188;-74
2021/05/25 07:41:17;;;;;;;0.60;0.60;;;10.00;99.90;;;;;;5010807;28;20608;-74
2021/05/25 07:43:44;;;;;;;0.50;0.50;;;10.00;99.90;;;;;;5029258;28;20283;-74
2021/05/25 07:46:11;;;;;;;0.63;0.63;;;10.00;99.90;;;;;;5029618;28;20184;-74
2021/05/25 07:48:37;;;;;;;1.27;0.70;;;10.00;99.90;;;;;;5045591;28;20467;-74
2021/05/25 07:51:03;;;;;;;0.70;0.70;;;10.00;99.90;;;;;;5013137;28;20431;-74
2021/05/25 07:53:29;;;;;;;1.10;0.90;;;10.10;99.90;;;;;;5061465;28;20713;-74
2021/05/25 07:55:55;;;;;;;1.37;0.60;;;10.10;99.90;;;;;;5032610;28;20524;-74
2021/05/25 07:58:20;;;;;;;0.60;0.60;;;10.20;99.90;;;;;;5012411;28;20644;-74
2021/05/25 08:00:46;;;;;;;0.60;0.60;;;10.20;99.90;;;;;;5027172;28;20451;-74
2021/05/25 08:03:13;;;;;;;0.53;0.53;;;10.30;99.90;;;;;;5029499;28;20231;-74
2021/05/25 08:05:39;;;;;;;0.50;0.50;;;10.30;99.90;;;;;;5029741;28;20188;-74
2021/05/25 08:08:08;;;;;;;0.70;0.63;;;10.30;99.90;;;;;;5038271;28;20774;-74
2021/05/25 08:10:34;;;;;;;0.50;0.50;;;10.30;99.90;;;;;;5013085;28;20419;-74
2021/05/25 08:13:00;;;;;;;3.33;1.80;;;10.30;99.90;;;;;;5045501;28;20502;-74
2021/05/25 08:15:28;;;;;;;0.83;0.50;;;10.30;99.90;;;;;;5060038;28;20530;-74
2021/05/25 08:20:26;;;;;;;0.70;0.70;;;10.30;99.90;;;;;;5029942;28;20920;-74
2021/05/25 08:22:58;;;;;;;0.67;0.50;;;10.40;99.90;;;;;;4997135;28;20433;-74
2021/05/25 08:25:29;;;;;;;0.67;0.50;;;10.40;99.90;;;;;;4992785;28;20510;-74
2021/05/25 08:27:55;;;;;;;0.60;0.60;;;10.50;99.90;;;;;;5028147;28;20420;-74
2021/05/25 08:30:24;;;;;;;0.40;0.40;;;10.50;99.90;;;;;;5029893;28;20427;-74
2021/05/25 08:32:50;;;;;;;0.70;0.47;;;10.60;99.90;;;;;;5045519;28;20477;-74
2021/05/25 08:35:17;;;;;;;0.40;0.40;;;10.60;99.90;;;;;;5027489;28;20485;-74
2021/05/25 08:37:48;;;;;;;0.50;0.40;;;10.60;99.90;;;;;;5027284;28;20443;-74
2021/05/25 08:40:15;;;;;;;0.97;0.47;;;10.60;99.90;;;;;;5030155;28;20935;-74
2021/05/25 08:42:41;;;;;;;0.40;0.40;;;10.60;99.90;;;;;;5008390;28;20459;-74
2021/05/25 08:45:09;;;;;;;0.40;0.40;;;10.60;99.90;;;;;;5011868;28;20491;-74
2021/05/25 08:47:35;;;;;;;0.40;0.40;;;10.60;99.90;;;;;;5028400;28;20443;-74
2021/05/25 08:50:04;;;;;;;0.50;0.50;;;10.60;99.90;;;;;;5028272;28;20543;-74
2021/05/25 08:52:30;;;;;;;0.63;0.50;;;10.60;99.90;;;;;;5028934;28;20939;-74
2021/05/25 08:54:56;;;;;;;1.67;0.80;;;10.60;99.90;;;;;;4852891;28;20473;-74
2021/05/25 08:57:21;;;;;;;0.50;0.40;;;10.60;99.90;;;;;;4866031;28;20578;-73
2021/05/25 08:59:47;;;;;;;0.47;0.47;;;10.70;99.90;;;;;;4845359;28;20960;-74
2021/05/25 09:02:14;;;;;;;0.47;0.47;;;10.70;99.90;;;;;;4863146;28;20204;-73
2021/05/25 09:05:00;;;;;;;0.63;0.63;;;10.70;99.90;;;;;;4912758;28;20254;-74
2021/05/25 09:07:44;;;;;;;0.40;0.40;;;10.80;99.90;;;;;;5005578;28;20456;-73
2021/05/25 09:10:29;;;;;;;1.33;0.80;;;10.80;99.90;;;;;;5040881;28;20483;-74
2021/05/25 09:12:55;;;;;;;0.40;0.40;;;10.80;99.90;;;;;;4992618;28;20473;-74
2021/05/25 09:15:31;;;;;;;0.50;0.50;;;10.80;99.90;;;;;;4968640;28;20475;-74
2021/05/25 09:18:04;;;;;;;0.80;0.70;;;10.80;99.90;;;;;;5061152;28;20456;-74
2021/05/25 09:20:46;;;;;;;0.60;0.60;;;10.70;99.90;;;;;;5030167;28;20480;-73
2021/05/25 09:23:22;;;;;;;0.60;0.40;;;10.70;99.90;;;;;;5034315;28;20848;-74
2021/05/25 09:25:56;;;;;;;0.60;0.60;;;10.70;99.90;;;;;;5004042;28;20480;-74
2021/05/25 09:28:22;;;;;;;0.90;0.50;;;10.70;99.90;;;;;;5021099;28;20805;-74
2021/05/25 09:30:48;;;;;;;0.70;0.50;;;10.70;99.90;;;;;;5061226;28;20471;-74
2021/05/25 09:33:27;;;;;;;0.50;0.40;;;10.70;99.90;;;;;;5009914;28;20208;-73
2021/05/25 09:35:53;;;;;;;0.50;0.50;;;10.80;99.90;;;;;;5016265;28;20470;-74
2021/05/25 09:38:21;;;;;;;0.57;0.57;;;10.80;99.90;;;;;;5050123;28;20459;-74
2021/05/25 09:40:49;;;;;;;0.40;0.33;;;10.90;99.90;;;;;;5028527;28;20693;-74
2021/05/25 09:43:15;;;;;;;0.67;0.67;;;11.00;99.90;;;;;;5027308;28;20456;-73
2021/05/25 09:46:14;;;;;;;0.50;0.50;;;11.00;99.90;;;;;;5047165;28;20455;-74
2021/05/25 09:48:45;;;;;;;0.60;0.50;;;11.10;99.90;;;;;;5010269;28;20229;-74
2021/05/25 09:51:28;;;;;;;0.97;0.60;;;11.20;99.90;;;;;;5043744;28;20467;-74
2021/05/25 09:53:56;;;;;;;0.50;0.40;;;11.20;99.90;;;;;;5023242;28;20456;-74
2021/05/25 09:56:40;;;;;;;0.90;0.70;;;11.20;99.90;;;;;;5044233;28;20463;-73
2021/05/25 09:59:05;;;;;;;2.70;0.63;;;11.30;99.90;;;;;;4994022;28;20592;-74
2021/05/25 10:01:38;;;;;;;0.80;0.80;;;11.30;99.90;;;;;;5049957;28;20471;-73
2021/05/25 10:04:11;;;;;;;0.60;0.60;;;11.40;99.90;;;;;;5052896;28;20255;-74
2021/05/25 10:06:44;;;;;;;0.70;0.70;;;11.40;99.90;;;;;;5040008;28;20443;-74
2021/05/25 10:09:10;;;;;;;0.87;0.83;;;11.60;99.90;;;;;;5041725;28;20463;-74
2021/05/25 10:11:46;;;;;;;0.60;0.60;;;11.80;99.90;;;;;;5023315;28;20590;-73
2021/05/25 10:14:13;;;;;;;1.23;0.80;;;11.90;99.90;;;;;;5029549;28;20498;-74
2021/05/25 10:16:43;;;;;;;1.00;0.80;;;12.10;99.90;;;;;;5013454;28;20457;-74
2021/05/25 10:21:37;;;;;;;1.20;0.83;;;12.10;99.90;;;;;;5063409;28;20447;-74
2021/05/25 10:24:03;;;;;;;1.00;1.00;;;12.20;99.90;;;;;;5043494;28;20468;-74
2021/05/25 10:26:30;;;;;;;0.70;0.70;;;12.20;99.90;;;;;;5044827;28;20626;-73
2021/05/25 10:28:57;;;;;;;0.80;0.70;;;12.30;99.90;;;;;;5030701;28;20490;-74
2021/05/25 10:31:29;;;;;;;0.70;0.70;;;12.40;99.90;;;;;;5046575;28;20547;-73
2021/05/25 10:34:21;;;;;;;0.80;0.80;;;12.50;99.90;;;;;;5046591;28;20461;-74
2021/05/25 10:36:55;;;;;;;0.83;0.83;;;12.50;99.90;;;;;;5033049;28;20575;-74
2021/05/25 10:39:36;;;;;;;0.70;0.70;;;12.50;99.90;;;;;;5037020;28;20491;-74
2021/05/25 10:42:26;;;;;;;1.77;0.87;;;12.60;99.90;;;;;;5009496;28;20463;-74
2021/05/25 10:44:59;;;;;;;0.80;0.80;;;12.60;99.90;;;;;;5026871;28;20491;-74
2021/05/25 10:47:33;;;;;;;1.40;1.13;;;12.60;99.90;;;;;;5024567;28;20511;-74
2021/05/25 10:50:16;;;;;;;0.87;0.80;;;12.70;99.90;;;;;;5026333;28;20908;-74
2021/05/25 10:53:05;;;;;;;0.93;0.80;;;12.70;99.90;;;;;;4993512;28;20452;-74
2021/05/25 10:55:42;;;;;;;0.90;0.77;;;12.70;99.90;;;;;;5071658;28;20518;-74
2021/05/25 10:58:20;;;;;;;1.13;0.90;;;12.70;99.90;;;;;;5046368;28;20461;-74
2021/05/25 11:00:46;;;;;;;1.07;0.90;;;12.60;99.90;;;;;;5079838;28;20458;-74
2021/05/25 11:03:12;;;;;;;0.70;0.70;;;12.50;99.90;;;;;;5008538;28;20456;-74
2021/05/25 11:05:46;;;;;;;0.67;0.67;;;12.40;99.90;;;;;;5009638;28;20480;-74
2021/05/25 11:08:15;;;;;;;0.80;0.80;;;12.50;99.90;;;;;;5004835;28;20221;-74
2021/05/25 11:10:47;;;;;;;1.10;0.90;;;12.40;99.90;;;;;;5036229;28;20453;-74
2021/05/25 11:13:21;;;;;;;1.47;1.00;;;12.40;99.90;;;;;;5017705;28;20517;-74
2021/05/25 11:16:08;;;;;;;0.93;0.90;;;12.40;99.90;;;;;;5083218;28;20439;-74
2021/05/25 11:19:04;;;;;;;0.60;0.60;;;12.40;99.90;;;;;;5027733;28;20551;-74
2021/05/25 11:27:15;;;;;;;0.63;0.60;;;12.70;99.90;;;;;;5083079;28;20529;-74
2021/05/25 11:29:41;;;;;;;0.97;0.97;;;12.80;99.90;;;;;;5064387;28;21050;-74
2021/05/25 11:32:16;;;;;;;1.37;0.83;;;12.80;99.90;;;;;;5053057;28;20462;-74
2021/05/25 11:34:44;;;;;;;0.70;0.60;;;12.80;99.90;;;;;;5029829;28;20465;-74
2021/05/25 11:37:16;;;;;;;5.20;0.87;;;12.80;99.90;;;;;;5032771;28;20879;-74
2021/05/25 11:39:42;;;;;;;1.20;0.70;;;12.80;99.90;;;;;;5040335;28;20510;-74
2021/05/25 11:42:09;;;;;;;0.80;0.77;;;12.80;99.90;;;;;;5045145;28;20963;-74
2021/05/25 11:44:41;;;;;;;0.70;0.70;;;12.80;99.90;;;;;;5028058;28;20227;-74
2021/05/25 11:47:07;;;;;;;0.83;0.60;;;12.80;99.90;;;;;;5021102;28;20466;-74
2021/05/25 11:49:39;;;;;;;1.73;0.87;;;12.90;99.90;;;;;;5029811;28;20503;-74
2021/05/25 11:52:31;;;;;;;1.10;0.80;;;13.00;99.90;;;;;;5083401;28;21021;-75
2021/05/25 11:55:08;;;;;;;0.60;0.60;;;13.20;99.90;;;;;;5028047;28;20447;-74
2021/05/25 11:57:42;;;;;;;0.80;0.80;;;13.30;99.90;;;;;;5046488;28;20455;-74
2021/05/25 12:00:15;;;;;;;0.73;0.73;;;13.70;99.90;;;;;;5025429;28;20547;-74
2021/05/25 12:02:47;;;;;;;4.00;0.97;;;13.90;99.90;;;;;;5042576;28;20451;-74
2021/05/25 12:05:20;;;;;;;1.20;1.00;;;14.10;99.90;;;;;;5013029;28;20539;-74
2021/05/25 12:07:49;;;;;;;0.90;0.87;;;14.30;99.90;;;;;;5038111;28;20483;-73
2021/05/25 12:10:17;;;;;;;0.70;0.70;;;14.70;99.90;;;;;;5028225;28;20467;-73
2021/05/25 12:12:45;;;;;;;1.03;0.80;;;14.80;99.90;;;;;;5027083;28;20451;-73
2021/05/25 12:15:19;;;;;;;0.83;0.80;;;14.90;99.90;;;;;;5057126;28;20455;-73
2021/05/25 12:17:47;;;;;;;1.00;0.90;;;15.00;99.90;;;;;;5007099;28;20472;-73
2021/05/25 12:20:17;;;;;;;3.63;0.90;;;15.00;99.90;;;;;;5028571;28;20505;-72
2021/05/25 12:22:44;;;;;;;1.30;0.87;;;15.00;99.90;;;;;;5022743;28;20452;-73
2021/05/25 12:25:36;;;;;;;3.13;1.20;;;15.00;99.90;;;;;;5008998;28;20983;-73
2021/05/25 12:28:14;;;;;;;1.00;0.90;;;15.00;99.90;;;;;;4997591;28;20471;-73
2021/05/25 12:30:44;;;;;;;2.27;1.00;;;15.00;99.90;;;;;;5001015;28;20553;-73
2021/05/25 12:33:21;;;;;;;0.80;0.80;;;15.00;99.80;;;;;;5013893;28;20452;-73
2021/05/25 12:35:48;;;;;;;1.20;0.97;;;15.00;99.70;;;;;;4993427;28;20448;-73
2021/05/25 12:38:17;;;;;;;0.97;0.77;;;15.00;99.70;;;;;;4998094;28;20960;-73
2021/05/25 12:41:03;;;;;;;1.63;0.80;;;15.00;99.40;;;;;;5028439;28;20466;-73
2021/05/25 12:43:32;;;;;;;0.70;0.70;;;14.90;99.90;;;;;;5015065;28;20455;-73
2021/05/25 12:46:10;;;;;;;2.10;1.40;;;15.00;99.90;;;;;;5046874;28;20826;-73
2021/05/25 12:48:43;;;;;;;1.03;0.97;;;15.00;99.90;;;;;;5047697;28;20539;-72
2021/05/25 12:51:10;;;;;;;1.43;1.20;;;14.90;99.90;;;;;;5048370;28;20502;-73
2021/05/25 12:53:53;;;;;;;2.33;1.70;;;15.00;99.90;;;;;;5047752;28;20886;-73
2021/05/25 12:56:20;;;;;;;4.07;1.40;;;15.10;99.90;;;;;;5048135;28;20463;-73
2021/05/25 12:58:48;;;;;;;2.10;0.80;;;15.20;99.90;;;;;;5048636;28;20474;-73
2021/05/25 13:01:26;;;;;;;0.70;0.70;;;15.00;99.90;;;;;;5048017;28;20451;-73
2021/05/25 13:04:01;;;;;;;0.90;0.80;;;14.80;98.70;;;;;;5013523;28;20508;-73
2021/05/25 13:06:31;;;;;;;0.70;0.70;;;14.60;98.20;;;;;;5034076;28;20593;-73